Time;durP1;ratioP1;P1;durP2;ratioP2;P2;SDS_P1;SDS_P2;PMS_P1;PMS_P2;Temp;Humidity;BMP_temperature;BMP_pressure;BME280_temperature;BME280_humidity;BME280_pressure;Samples;Min_cycle;Max_cycle;Signal;HPM_P1;HPM_P2
2023/05/25 00:00:34;;;;;;;;;13.33;10.00;;;;;14.22;61.54;102180.31;5034597;28;45389;-64
2023/05/25 00:02:59;;;;;;;;;11.67;8.00;;;;;14.41;61.92;102224.16;5034645;28;45393;-64
2023/05/25 00:05:26;;;;;;;;;8.67;7.67;;;;;14.41;62.21;102215.34;5034966;28;45252;-64
2023/05/25 00:07:53;;;;;;;;;8.67;8.67;;;;;14.28;62.29;102196.13;5035023;28;45376;-64
2023/05/25 00:10:19;;;;;;;;;11.00;9.00;;;;;14.35;62.31;102204.81;5034474;28;47155;-64
2023/05/25 00:12:44;;;;;;;;;6.67;6.67;;;;;14.36;62.32;102223.38;5034498;28;45433;-64
2023/05/25 00:15:10;;;;;;;;;11.67;8.67;;;;;14.26;62.71;102206.72;5033915;28;45325;-64
2023/05/25 00:17:36;;;;;;;;;7.67;7.33;;;;;14.30;62.60;102214.63;5035175;28;45402;-64
2023/05/25 00:20:08;;;;;;;;;15.33;12.67;;;;;14.35;62.87;102228.69;5034280;28;46381;-64
2023/05/25 00:22:37;;;;;;;;;10.67;9.00;;;;;14.30;62.67;102217.28;5034579;28;45300;-64
2023/05/25 00:25:03;;;;;;;;;11.00;8.00;;;;;14.17;63.62;102209.50;5034569;28;45239;-64
2023/05/25 00:27:29;;;;;;;;;16.00;9.00;;;;;14.19;63.32;102215.66;5034462;28;45441;-64
2023/05/25 00:29:55;;;;;;;;;14.67;10.00;;;;;14.16;63.21;102214.81;5034102;28;45625;-64
2023/05/25 00:32:20;;;;;;;;;13.00;10.00;;;;;14.07;64.20;102206.13;5034192;28;45436;-64
2023/05/25 00:34:46;;;;;;;;;13.33;10.00;;;;;14.14;63.88;102219.28;5034366;28;45410;-64
2023/05/25 00:37:12;;;;;;;;;14.00;12.00;;;;;14.06;64.17;102222.91;5034498;28;45497;-64
2023/05/25 00:39:37;;;;;;;;;11.00;10.00;;;;;13.99;64.55;102212.44;5033742;28;46487;-64
2023/05/25 00:42:05;;;;;;;;;15.00;11.00;;;;;13.83;65.20;102190.56;5034118;28;45391;-64
2023/05/25 00:44:30;;;;;;;;;12.67;10.33;;;;;14.00;65.24;102223.00;5034196;28;45434;-64
2023/05/25 00:46:56;;;;;;;;;12.33;11.67;;;;;14.00;65.71;102211.50;5033937;28;45410;-64
2023/05/25 00:49:22;;;;;;;;;10.33;9.33;;;;;13.95;65.53;102200.13;5034068;28;46710;-64
2023/05/25 00:51:48;;;;;;;;;12.33;8.00;;;;;13.99;65.64;102218.59;5033866;28;45260;-64
2023/05/25 00:54:18;;;;;;;;;16.00;12.67;;;;;13.98;65.70;102219.47;5033868;28;45399;-64
2023/05/25 00:56:49;;;;;;;;;14.00;11.00;;;;;13.95;65.70;102218.66;5034428;28;45368;-65
2023/05/25 00:59:34;;;;;;;;;17.33;13.33;;;;;13.94;66.01;102217.75;5033577;28;47564;-64
2023/05/25 01:02:03;;;;;;;;;14.67;12.67;;;;;13.94;65.74;102228.34;5033226;28;45278;-64
2023/05/25 01:04:32;;;;;;;;;12.33;10.67;;;;;13.87;66.24;102219.63;5033520;28;45423;-65
2023/05/25 01:07:00;;;;;;;;;17.00;14.00;;;;;13.86;66.49;102223.16;5034045;28;45809;-64
2023/05/25 01:09:27;;;;;;;;;11.33;9.33;;;;;13.75;66.74;102215.38;5033403;28;46601;-64
2023/05/25 01:11:54;;;;;;;;;13.33;10.00;;;;;13.80;66.83;102235.63;5033477;28;45552;-64
2023/05/25 01:14:20;;;;;;;;;17.33;12.67;;;;;13.78;67.21;102242.69;5033672;28;45376;-65
2023/05/25 01:16:47;;;;;;;;;13.67;12.00;;;;;13.73;66.76;102235.66;5033170;28;45451;-64
2023/05/25 01:19:12;;;;;;;;;14.67;12.00;;;;;13.61;67.34;102214.66;5033484;28;46444;-64
2023/05/25 01:21:46;;;;;;;;;14.00;12.00;;;;;13.71;67.73;102242.78;5033345;28;45277;-64
2023/05/25 01:24:21;;;;;;;;;17.00;13.33;;;;;13.70;67.58;102234.84;5033510;28;45434;-64
2023/05/25 01:26:53;;;;;;;;;15.33;13.00;;;;;13.68;67.43;102233.97;5033733;28;45175;-64
2023/05/25 01:29:20;;;;;;;;;19.33;15.67;;;;;13.64;68.00;102229.63;5036140;28;46062;-64
2023/05/25 01:31:46;;;;;;;;;16.00;15.00;;;;;13.62;67.63;102223.47;5036239;28;45507;-65
2023/05/25 01:34:13;;;;;;;;;20.00;15.00;;;;;13.58;68.07;102234.09;5036727;28;45469;-64
2023/05/25 01:36:38;;;;;;;;;22.00;16.00;;;;;13.57;67.50;102227.03;5036594;28;45437;-64
2023/05/25 01:39:05;;;;;;;;;19.33;13.67;;;;;13.50;68.50;102232.41;5036053;28;45780;-64
2023/05/25 01:41:30;;;;;;;;;19.33;16.33;;;;;13.48;68.47;102219.22;5036366;28;45177;-64
2023/05/25 01:43:56;;;;;;;;;15.33;12.67;;;;;13.55;68.71;102236.78;5036516;28;45221;-64
2023/05/25 01:46:35;;;;;;;;;16.33;13.67;;;;;13.50;67.65;102227.13;5036208;28;45313;-64
2023/05/25 01:49:10;;;;;;;;;15.67;14.00;;;;;13.53;68.47;102242.97;5036392;28;46698;-64
2023/05/25 01:51:51;;;;;;;;;14.67;14.67;;;;;13.53;68.72;102238.53;5036083;28;45324;-64
2023/05/25 01:54:21;;;;;;;;;16.33;16.33;;;;;13.32;68.63;102204.38;5036202;28;45436;-64
2023/05/25 01:56:50;;;;;;;;;20.33;15.33;;;;;13.53;68.60;102240.31;5036301;28;45591;-64
2023/05/25 01:59:20;;;;;;;;;22.00;17.00;;;;;13.53;68.13;102235.91;5036584;28;45272;-64
2023/05/25 02:01:47;;;;;;;;;18.67;16.67;;;;;13.46;68.66;102228.91;5035937;28;45404;-64
2023/05/25 02:04:14;;;;;;;;;17.33;14.00;;;;;13.52;68.85;102239.47;5036149;28;45391;-64
2023/05/25 02:06:39;;;;;;;;;14.00;14.00;;;;;13.53;68.46;102245.63;5036162;28;45281;-64
2023/05/25 02:09:05;;;;;;;;;18.67;16.67;;;;;13.55;68.36;102257.09;5035659;28;46562;-64
2023/05/25 02:11:30;;;;;;;;;15.33;12.67;;;;;13.40;68.37;102235.19;5036114;28;45346;-64
2023/05/25 02:13:55;;;;;;;;;21.33;17.00;;;;;13.48;69.07;102253.59;5035938;28;45465;-64
2023/05/25 02:16:21;;;;;;;;;18.33;16.33;;;;;13.40;68.88;102243.13;5036037;28;45406;-64
2023/05/25 02:18:46;;;;;;;;;13.67;12.67;;;;;13.44;68.91;102253.66;5035768;28;46435;-64
2023/05/25 02:21:11;;;;;;;;;13.33;11.33;;;;;13.44;68.49;102249.25;5035796;28;45442;-64
2023/05/25 02:23:37;;;;;;;;;13.00;12.00;;;;;13.47;68.66;102262.44;5035955;28;45685;-64
2023/05/25 02:26:02;;;;;;;;;13.67;12.00;;;;;13.42;69.02;102256.31;5035807;28;45336;-64
2023/05/25 02:28:27;;;;;;;;;16.33;12.00;;;;;13.41;68.79;102257.22;5035846;28;46068;-64
2023/05/25 02:30:53;;;;;;;;;18.33;14.67;;;;;13.40;69.27;102259.00;5035610;28;45449;-64
2023/05/25 02:33:19;;;;;;;;;18.33;18.00;;;;;13.38;69.36;102255.47;5035749;28;45314;-64
2023/05/25 02:35:44;;;;;;;;;17.33;16.00;;;;;13.28;68.98;102244.97;5035879;28;45783;-64
2023/05/25 02:38:09;;;;;;;;;15.67;13.67;;;;;13.35;68.93;102252.00;5035199;28;46026;-64
2023/05/25 02:40:35;;;;;;;;;18.33;14.00;;;;;13.37;69.25;102259.00;5035732;28;45318;-64
2023/05/25 02:43:00;;;;;;;;;14.67;13.00;;;;;13.37;69.29;102264.28;5035822;27;45378;-64
2023/05/25 02:45:25;;;;;;;;;17.67;15.67;;;;;13.41;69.36;102257.22;5035918;28;45444;-64
2023/05/25 02:47:51;;;;;;;;;13.67;13.00;;;;;13.35;69.47;102254.63;5035301;27;45344;-64
2023/05/25 02:50:16;;;;;;;;;20.00;15.67;;;;;13.36;69.55;102259.91;5035591;27;45273;-64
2023/05/25 02:52:41;;;;;;;;;16.00;14.33;;;;;13.37;69.29;102263.41;5035576;28;45397;-64
2023/05/25 02:55:12;;;;;;;;;19.67;16.00;;;;;13.28;69.86;102252.91;5035963;28;45447;-64
2023/05/25 02:57:37;;;;;;;;;17.00;15.67;;;;;13.27;70.20;102251.16;5035208;28;47147;-64
2023/05/25 03:00:05;;;;;;;;;20.33;16.00;;;;;13.17;70.04;102250.34;5035297;28;45472;-64
2023/05/25 03:02:31;;;;;;;;;20.00;17.00;;;;;13.17;70.42;102261.81;5035189;28;45383;-64
2023/05/25 03:04:57;;;;;;;;;18.67;15.00;;;;;13.05;70.29;102244.28;5035462;28;45384;-64
2023/05/25 03:07:25;;;;;;;;;16.00;13.67;;;;;13.01;70.57;102252.25;5035085;28;46422;-64
2023/05/25 03:09:51;;;;;;;;;17.00;14.67;;;;;13.08;70.99;102272.47;5035259;28;45394;-64
2023/05/25 03:12:16;;;;;;;;;15.33;14.33;;;;;13.05;70.62;102264.56;5035090;28;45409;-64
2023/05/25 03:14:41;;;;;;;;;18.33;14.33;;;;;12.98;70.89;102255.81;5035290;28;45354;-64
2023/05/25 03:17:07;;;;;;;;;15.00;13.33;;;;;13.02;70.73;102261.94;5034844;28;46094;-64
2023/05/25 03:19:32;;;;;;;;;15.33;15.00;;;;;13.00;70.89;102263.75;5035278;28;45422;-64
2023/05/25 03:21:57;;;;;;;;;13.67;12.67;;;;;12.96;70.90;102262.88;5016971;28;45480;-64
2023/05/25 03:24:23;;;;;;;;;15.33;13.67;;;;;12.98;71.12;102271.69;5035505;27;45407;-64
2023/05/25 03:26:48;;;;;;;;;15.00;14.33;;;;;12.88;71.57;102262.94;5034790;28;46432;-64
2023/05/25 03:29:13;;;;;;;;;16.33;15.67;;;;;12.66;71.81;102233.16;5034923;28;45273;-64
2023/05/25 03:31:39;;;;;;;;;17.67;15.67;;;;;12.82;71.82;102262.09;5035210;28;45276;-64
2023/05/25 03:34:05;;;;;;;;;16.00;13.00;;;;;12.70;71.71;102241.94;5035246;28;45371;-65
2023/05/25 03:36:32;;;;;;;;;14.67;12.33;;;;;12.92;71.62;102277.00;5034905;28;46191;-65
2023/05/25 03:38:57;;;;;;;;;18.67;17.67;;;;;12.92;71.89;102281.44;5034738;27;45365;-65
2023/05/25 03:41:23;;;;;;;;;17.67;15.00;;;;;12.89;71.67;102277.94;5034911;28;45844;-64
2023/05/25 03:43:48;;;;;;;;;18.00;14.00;;;;;12.84;71.86;102282.34;5035200;28;45256;-64
2023/05/25 03:46:13;;;;;;;;;15.33;13.00;;;;;12.88;71.66;102288.47;5034341;28;46373;-64
2023/05/25 03:48:39;;;;;;;;;24.00;22.00;;;;;12.90;71.97;102297.31;5034874;28;45254;-64
2023/05/25 03:51:05;;;;;;;;;17.00;14.67;;;;;12.92;71.71;102299.94;5033888;28;45418;-64
2023/05/25 03:53:30;;;;;;;;;22.00;17.33;;;;;12.88;72.26;102305.25;5034978;28;45370;-64
2023/05/25 03:55:56;;;;;;;;;19.67;15.00;;;;;12.83;71.93;102291.16;5034427;28;46583;-64
2023/05/25 03:58:21;;;;;;;;;16.00;14.67;;;;;12.91;72.14;102299.06;5034746;28;45464;-65
2023/05/25 04:00:50;;;;;;;;;19.33;17.00;;;;;12.82;71.90;102285.91;5034883;28;45343;-64
2023/05/25 04:03:15;;;;;;;;;17.33;14.67;;;;;12.91;71.73;102296.41;5034719;28;45712;-64
2023/05/25 04:05:41;;;;;;;;;22.33;17.67;;;;;12.96;71.65;102320.19;5034245;28;45814;-64
2023/05/25 04:08:07;;;;;;;;;15.00;14.33;;;;;12.85;71.85;102299.09;5034760;28;45457;-64
2023/05/25 04:10:33;;;;;;;;;19.00;14.67;;;;;12.97;72.12;102324.56;5034588;28;45380;-64
2023/05/25 04:12:58;;;;;;;;;17.00;16.00;;;;;12.93;72.05;102313.13;5029522;28;45368;-64
2023/05/25 04:15:24;;;;;;;;;22.00;17.00;;;;;12.87;72.46;102307.91;4997797;28;47279;-65
2023/05/25 04:17:50;;;;;;;;;18.67;16.33;;;;;12.92;72.40;102318.44;5002962;28;45563;-64
2023/05/25 04:20:15;;;;;;;;;22.00;18.33;;;;;12.89;72.34;102308.75;4994899;28;45333;-65
2023/05/25 04:22:42;;;;;;;;;18.00;16.33;;;;;12.99;71.87;102313.09;4994873;28;45231;-65
2023/05/25 04:25:09;;;;;;;;;18.67;16.00;;;;;13.01;71.79;102326.28;4994469;28;47389;-65
2023/05/25 04:27:35;;;;;;;;;18.67;16.67;;;;;13.05;71.62;102322.75;4994535;28;45560;-64
2023/05/25 04:30:01;;;;;;;;;18.67;16.67;;;;;12.99;72.17;102305.16;4994516;28;45387;-65
2023/05/25 04:32:28;;;;;;;;;22.67;18.00;;;;;13.08;71.95;102325.34;4994675;28;45492;-65
2023/05/25 04:34:55;;;;;;;;;22.00;21.67;;;;;13.11;71.30;102322.69;4994234;28;47387;-65
2023/05/25 04:37:21;;;;;;;;;26.00;21.33;;;;;13.15;71.54;102335.00;4994541;28;45457;-65
2023/05/25 04:39:46;;;;;;;;;25.33;18.00;;;;;13.11;71.58;102324.47;4994439;28;45396;-65
2023/05/25 04:42:12;;;;;;;;;26.00;20.67;;;;;13.19;71.99;102344.66;4994608;28;45442;-65
2023/05/25 04:44:38;;;;;;;;;24.50;19.50;;;;;13.16;71.87;102331.47;4994281;28;47221;-65
2023/05/25 04:47:06;;;;;;;;;20.00;18.00;;;;;13.11;71.85;102322.69;5003457;27;45288;-65
2023/05/25 04:49:31;;;;;;;;;21.00;19.00;;;;;13.23;72.12;102341.13;5014129;28;45769;-65
2023/05/25 04:51:57;;;;;;;;;28.67;21.33;;;;;13.27;71.52;102343.72;5014386;27;45399;-65
2023/05/25 04:54:22;;;;;;;;;22.00;18.67;;;;;13.12;71.40;102327.09;5014061;28;45446;-65
2023/05/25 04:56:48;;;;;;;;;23.67;22.00;;;;;13.16;71.66;102322.66;5014313;27;45321;-64
2023/05/25 04:59:13;;;;;;;;;21.00;18.67;;;;;13.29;71.26;102334.91;5014295;27;45235;-65
2023/05/25 05:01:40;;;;;;;;;18.33;17.67;;;;;13.31;71.72;102332.25;5014947;27;45424;-65
2023/05/25 05:04:07;;;;;;;;;24.00;19.67;;;;;13.53;71.12;102332.94;5016829;28;46530;-65
2023/05/25 05:06:33;;;;;;;;;21.67;18.67;;;;;13.72;69.55;102345.13;5016636;27;45450;-64
2023/05/25 05:09:00;;;;;;;;;14.33;13.00;;;;;13.74;69.79;102350.41;5017178;28;45376;-65
2023/05/25 05:11:26;;;;;;;;;21.67;17.33;;;;;14.02;69.04;102337.72;5017015;28;45447;-65
2023/05/25 05:13:52;;;;;;;;;25.33;22.67;;;;;14.05;68.46;102327.09;5016775;27;45429;-64
2023/05/25 05:16:17;;;;;;;;;20.50;17.50;;;;;14.04;68.17;102345.66;5016833;27;45366;-64
2023/05/25 05:18:42;;;;;;;;;16.00;14.00;;;;;13.97;68.43;102344.88;5031459;28;45525;-64
2023/05/25 05:21:08;;;;;;;;;22.33;18.67;;;;;13.94;69.09;102344.88;5036978;28;45461;-64
2023/05/25 05:23:33;;;;;;;;;18.33;17.00;;;;;13.85;69.33;102344.97;5036795;28;45467;-65
2023/05/25 05:25:59;;;;;;;;;17.67;17.00;;;;;13.86;69.41;102352.91;5036554;28;45253;-65
2023/05/25 05:28:26;;;;;;;;;18.67;16.00;;;;;13.86;68.83;102347.59;5037046;27;45422;-64
2023/05/25 05:30:52;;;;;;;;;23.00;18.00;;;;;13.76;69.87;102357.41;5036867;28;45228;-64
2023/05/25 05:33:17;;;;;;;;;21.67;18.67;;;;;13.73;69.74;102343.34;5036243;28;46067;-64
2023/05/25 05:35:43;;;;;;;;;20.00;15.00;;;;;13.62;69.50;102316.97;5036512;28;45697;-64
2023/05/25 05:38:08;;;;;;;;;21.00;16.00;;;;;13.76;69.47;102338.88;5036711;28;45309;-64
2023/05/25 05:40:34;;;;;;;;;17.67;14.67;;;;;13.89;69.61;102352.88;5036880;28;45346;-65
2023/05/25 05:42:59;;;;;;;;;22.33;18.00;;;;;13.92;69.48;102354.63;5036523;28;47160;-64
2023/05/25 05:45:24;;;;;;;;;17.67;16.67;;;;;13.96;68.54;102353.69;5036748;28;45949;-65
2023/05/25 05:47:50;;;;;;;;;18.00;16.67;;;;;14.03;68.44;102354.47;5015036;28;45309;-65
2023/05/25 05:50:15;;;;;;;;;16.00;16.00;;;;;14.08;68.32;102344.72;5016687;28;45499;-64
2023/05/25 05:52:40;;;;;;;;;3.00;1.33;;;;;14.18;67.76;102349.00;5016437;28;46354;-65
2023/05/25 05:55:06;;;;;;;;;14.67;14.67;;;;;14.35;67.07;102371.75;5016358;28;45409;-65
2023/05/25 05:57:32;;;;;;;;;16.00;15.33;;;;;14.31;67.63;102365.66;5016687;28;45401;-64
2023/05/25 05:59:57;;;;;;;;;17.67;15.00;;;;;14.39;67.09;102371.72;5016714;28;45517;-65
2023/05/25 06:02:22;;;;;;;;;21.33;18.00;;;;;14.42;67.18;102369.03;5016119;28;45527;-65
2023/05/25 06:04:48;;;;;;;;;20.33;13.67;;;;;14.42;66.66;102368.16;5016194;28;45456;-64
2023/05/25 06:07:13;;;;;;;;;18.00;14.67;;;;;14.48;66.40;102375.13;5016448;28;45240;-65
2023/05/25 06:09:38;;;;;;;;;15.00;14.00;;;;;14.58;65.54;102376.78;5016761;28;45465;-65
2023/05/25 06:12:05;;;;;;;;;17.00;15.33;;;;;14.55;65.97;102372.41;5016153;28;45991;-64
2023/05/25 06:14:30;;;;;;;;;20.67;15.00;;;;;14.54;65.42;102364.50;5015547;28;45430;-64
2023/05/25 06:16:55;;;;;;;;;14.67;13.67;;;;;14.64;64.94;102382.06;5016403;28;45284;-64
2023/05/25 06:19:21;;;;;;;;;20.00;14.67;;;;;14.61;65.34;102375.00;5016332;28;45412;-65
2023/05/25 06:21:46;;;;;;;;;21.00;13.67;;;;;14.62;64.50;102363.50;5014760;28;46402;-64
2023/05/25 06:24:11;;;;;;;;;16.67;14.67;;;;;14.56;65.04;102344.13;5015627;28;45264;-65
2023/05/25 06:26:37;;;;;;;;;23.00;15.33;;;;;14.68;64.30;102361.66;5015002;28;45597;-66
2023/05/25 06:29:02;;;;;;;;;15.33;14.67;;;;;14.73;63.96;102367.78;5016336;28;45386;-66
2023/05/25 06:31:27;;;;;;;;;16.00;11.67;;;;;14.86;63.79;102390.56;5014409;28;45485;-66
2023/05/25 06:33:53;;;;;;;;;17.67;15.00;;;;;14.87;63.88;102384.38;5015778;28;45408;-66
2023/05/25 06:36:18;;;;;;;;;13.67;11.00;;;;;14.86;63.25;102382.63;5015768;28;45306;-66
2023/05/25 06:38:44;;;;;;;;;15.67;13.67;;;;;14.89;63.26;102385.22;5014695;28;45401;-66
2023/05/25 06:41:11;;;;;;;;;10.33;10.33;;;;;14.95;62.85;102398.38;5015565;28;46336;-66
2023/05/25 06:43:36;;;;;;;;;15.33;11.67;;;;;14.92;62.72;102398.44;5014458;28;45368;-66
2023/05/25 06:46:02;;;;;;;;;11.33;11.00;;;;;14.91;63.00;102395.81;5016508;27;45285;-67
2023/05/25 06:48:27;;;;;;;;;13.67;12.33;;;;;14.98;62.90;102400.13;5035690;28;45454;-66
2023/05/25 06:50:52;;;;;;;;;11.67;9.33;;;;;15.05;62.16;102398.28;5035353;28;46608;-66
2023/05/25 06:53:18;;;;;;;;;14.67;12.00;;;;;15.09;62.10;102405.28;5035654;28;45301;-66
2023/05/25 06:55:43;;;;;;;;;10.67;9.67;;;;;15.14;61.80;102411.38;5035498;28;45338;-66
2023/05/25 06:58:08;;;;;;;;;11.67;10.00;;;;;15.16;61.71;102393.66;5035933;28;45696;-66
2023/05/25 07:00:34;;;;;;;;;15.00;13.00;;;;;15.37;61.68;102402.22;5035269;28;46619;-66
2023/05/25 07:03:00;;;;;;;;;18.00;12.33;;;;;16.25;59.62;102404.19;5035188;28;45389;-66
2023/05/25 07:05:25;;;;;;;;;13.67;11.33;;;;;16.70;57.11;102388.19;5035487;28;45338;-66
2023/05/25 07:07:51;;;;;;;;;10.00;7.67;;;;;16.75;56.64;102414.66;5035611;28;45279;-66
2023/05/25 07:10:16;;;;;;;;;12.67;11.00;;;;;16.60;56.99;102415.88;5035624;28;46251;-66
2023/05/25 07:12:41;;;;;;;;;19.67;13.00;;;;;16.63;57.29;102425.59;5035310;28;45444;-66
2023/05/25 07:15:07;;;;;;;;;11.00;11.00;;;;;16.80;57.62;102422.53;5035342;28;45357;-66
2023/05/25 07:17:35;;;;;;;;;10.33;8.67;;;;;17.54;55.57;102400.44;5035503;28;45627;-66
2023/05/25 07:20:00;;;;;;;;;11.67;8.67;;;;;18.60;53.16;102415.31;5034922;28;46579;-66
2023/05/25 07:22:26;;;;;;;;;12.33;10.33;;;;;18.48;52.87;102420.16;5035233;28;45381;-66
2023/05/25 07:24:51;;;;;;;;;12.67;9.00;;;;;18.05;52.42;102422.22;5034463;28;45346;-66
2023/05/25 07:27:18;;;;;;;;;34.00;29.33;;;;;17.64;53.43;102416.16;5034838;28;45365;-66
2023/05/25 07:29:43;;;;;;;;;7.67;6.67;;;;;17.35;53.78;102423.94;5035108;28;46140;-66
2023/05/25 07:32:09;;;;;;;;;10.00;8.33;;;;;17.01;54.72;102410.59;5034828;28;45433;-66
2023/05/25 07:34:34;;;;;;;;;10.00;8.33;;;;;16.95;55.19;102432.00;5035382;28;45274;-66
2023/05/25 07:36:59;;;;;;;;;7.67;6.67;;;;;16.86;54.94;102433.03;5034924;28;45339;-66
2023/05/25 07:39:25;;;;;;;;;10.67;7.00;;;;;16.77;54.74;102434.13;5034936;28;45591;-65
2023/05/25 07:41:51;;;;;;;;;5.33;5.33;;;;;16.64;55.39;102422.00;5035072;28;45499;-66
2023/05/25 07:44:16;;;;;;;;;9.67;6.33;;;;;16.76;55.72;102435.06;5034937;28;45736;-66
2023/05/25 07:46:51;;;;;;;;;13.67;8.33;;;;;16.79;54.78;102427.00;5091455;27;45773;-67
2023/05/25 07:49:17;;;;;;;;;18.33;17.67;;;;;16.88;55.36;102428.63;5074065;28;45454;-67
2023/05/25 07:51:44;;;;;;;;;9.67;7.00;;;;;16.87;54.74;102425.09;5074075;28;45491;-67
2023/05/25 07:54:09;;;;;;;;;11.67;9.33;;;;;16.86;54.60;102417.06;5074594;28;45497;-67
2023/05/25 07:56:34;;;;;;;;;9.00;5.67;;;;;16.93;54.15;102423.19;5074058;28;46015;-67
2023/05/25 07:59:00;;;;;;;;;7.33;7.33;;;;;16.90;54.25;102425.91;5074129;28;45280;-68
2023/05/25 08:01:25;;;;;;;;;8.67;7.00;;;;;17.04;54.27;102437.13;5074107;28;45374;-67
2023/05/25 08:03:51;;;;;;;;;7.33;5.67;;;;;17.32;54.32;102418.72;5073670;28;45356;-67
2023/05/25 08:06:16;;;;;;;;;8.00;6.00;;;;;17.44;53.56;102436.19;5074003;28;45612;-67
2023/05/25 08:08:43;;;;;;;;;7.00;7.00;;;;;17.39;53.58;102422.97;5074065;28;45321;-67
2023/05/25 08:11:09;;;;;;;;;8.67;7.00;;;;;17.59;53.23;102437.59;5074252;28;45300;-67
2023/05/25 08:13:34;;;;;;;;;8.33;8.33;;;;;18.07;52.25;102436.41;5074285;28;45491;-67
2023/05/25 08:16:00;;;;;;;;;10.33;8.33;;;;;18.90;51.27;102443.84;5073864;28;46558;-67
2023/05/25 08:18:25;;;;;;;;;6.67;5.67;;;;;20.07;48.63;102434.66;5072682;28;45305;-67
2023/05/25 08:20:50;;;;;;;;;13.33;7.33;;;;;19.99;47.85;102434.91;5073943;28;45398;-67
2023/05/25 08:23:16;;;;;;;;;6.00;5.00;;;;;19.91;47.61;102430.75;5074211;28;45250;-67
2023/05/25 08:25:42;;;;;;;;;6.33;6.33;;;;;19.94;48.56;102426.19;5073535;28;46431;-67
2023/05/25 08:28:07;;;;;;;;;7.00;7.00;;;;;20.22;47.41;102429.69;5073754;28;45229;-67
2023/05/25 08:30:32;;;;;;;;;7.67;7.33;;;;;20.55;47.29;102434.69;5073895;28;45426;-67
2023/05/25 08:32:58;;;;;;;;;6.67;6.00;;;;;20.51;46.37;102441.97;5074041;28;45156;-67
2023/05/25 08:35:23;;;;;;;;;9.00;6.00;;;;;20.26;46.65;102442.00;5073460;28;46671;-67
2023/05/25 08:37:48;;;;;;;;;6.33;5.00;;;;;19.78;47.10;102411.56;5073564;28;45255;-67
2023/05/25 08:40:15;;;;;;;;;9.67;7.33;;;;;19.77;46.96;102432.09;5073615;28;45343;-67
2023/05/25 08:42:44;;;;;;;;;5.00;5.00;;;;;19.52;47.05;102421.38;5074005;28;45376;-67
2023/05/25 08:45:10;;;;;;;;;3.00;3.00;;;;;19.30;46.96;102418.50;5079546;27;45296;-68
2023/05/25 08:47:40;;;;;;;;;8.67;6.00;;;;;19.18;47.94;102433.16;5093929;27;45324;-67
2023/05/25 08:50:08;;;;;;;;;9.33;6.33;;;;;19.16;47.38;102428.81;5093752;27;45408;-67
2023/05/25 08:52:37;;;;;;;;;7.33;5.33;;;;;19.29;46.49;102431.00;5093929;27;45421;-67
2023/05/25 08:55:05;;;;;;;;;6.33;5.00;;;;;19.23;46.89;102443.72;5093556;27;46627;-67
2023/05/25 08:57:44;;;;;;;;;6.33;5.00;;;;;19.18;47.32;102435.81;5083908;27;45447;-67
2023/05/25 09:00:14;;;;;;;;;7.00;7.00;;;;;19.23;47.10;102441.03;5080103;27;45515;-67
2023/05/25 09:03:16;;;;;;;;;5.33;5.00;;;;;19.24;46.87;102440.09;5080243;28;45321;-67
2023/05/25 09:05:42;;;;;;;;;4.67;4.67;;;;;19.28;46.50;102434.59;5079595;28;45285;-67
2023/05/25 09:08:08;;;;;;;;;7.00;6.67;;;;;19.35;47.10;102442.44;5080034;28;45361;-67
2023/05/25 09:10:34;;;;;;;;;7.00;5.67;;;;;19.47;47.02;102434.00;5079949;28;45292;-67
2023/05/25 09:13:01;;;;;;;;;9.33;6.00;;;;;19.90;46.03;102450.44;5080156;28;45357;-67
2023/05/25 09:15:26;;;;;;;;;8.00;6.33;;;;;20.27;45.28;102447.28;5079804;28;46234;-67
2023/05/25 09:17:52;;;;;;;;;9.00;7.33;;;;;20.50;45.15;102438.41;5079828;28;45412;-67
2023/05/25 09:20:18;;;;;;;;;6.00;6.00;;;;;20.48;44.53;102440.28;5079864;28;45243;-67
2023/05/25 09:22:45;;;;;;;;;9.67;6.67;;;;;20.43;44.75;102436.03;5080102;27;45287;-67
2023/05/25 09:25:13;;;;;;;;;8.00;6.33;;;;;20.36;44.56;102446.09;5079362;28;46644;-67
2023/05/25 09:27:40;;;;;;;;;9.33;7.00;;;;;20.33;44.54;102435.50;5079624;28;45265;-68
2023/05/25 09:30:07;;;;;;;;;7.33;7.33;;;;;20.43;45.38;102436.91;5079662;28;45419;-67
2023/05/25 09:32:32;;;;;;;;;9.67;8.00;;;;;20.62;44.79;102436.22;5079606;28;45558;-67
2023/05/25 09:35:09;;;;;;;;;12.33;8.00;;;;;21.08;43.77;102429.09;5079314;27;46071;-67
2023/05/25 09:37:36;;;;;;;;;7.33;7.33;;;;;22.41;42.46;102427.03;5079417;28;45344;-67
2023/05/25 09:40:03;;;;;;;;;12.33;8.67;;;;;23.88;41.26;102433.38;5079454;28;45474;-67
2023/05/25 09:42:29;;;;;;;;;12.67;11.00;;;;;24.50;41.14;102424.72;5079612;28;45339;-67
2023/05/25 09:44:54;;;;;;;;;13.00;11.33;;;;;25.04;38.02;102432.50;5078919;28;47003;-68
2023/05/25 09:47:20;;;;;;;;;14.33;12.67;;;;;25.48;37.07;102395.81;5079614;27;45678;-67
2023/05/25 09:49:46;;;;;;;;;15.33;13.00;;;;;27.44;35.96;102424.84;5079125;28;45273;-68
2023/05/25 09:52:12;;;;;;;;;14.00;14.00;;;;;29.00;32.80;102402.13;5079585;28;45456;-68
2023/05/25 09:54:38;;;;;;;;;16.00;13.00;;;;;29.83;32.73;102431.13;5078869;27;46275;-67
2023/05/25 09:57:04;;;;;;;;;16.00;15.00;;;;;29.56;32.12;102431.38;5079129;28;45288;-68
2023/05/25 09:59:30;;;;;;;;;18.00;15.00;;;;;28.88;32.21;102430.16;5061005;28;45411;-68
2023/05/25 10:01:57;;;;;;;;;15.67;14.00;;;;;28.04;32.31;102425.28;5079222;28;45357;-67
2023/05/25 10:04:23;;;;;;;;;16.33;14.67;;;;;27.62;33.44;102432.69;5078612;28;46520;-67
2023/05/25 10:06:51;;;;;;;;;15.33;15.33;;;;;27.82;33.88;102434.03;5079071;28;45185;-67
2023/05/25 10:09:20;;;;;;;;;17.67;16.33;;;;;27.41;33.35;102427.78;5077907;28;45230;-68
2023/05/25 10:11:49;;;;;;;;;18.00;16.33;;;;;27.52;33.43;102434.28;5079003;28;45276;-67
2023/05/25 10:14:20;;;;;;;;;19.67;15.67;;;;;27.42;32.87;102437.63;5078698;27;45301;-68
2023/05/25 10:16:49;;;;;;;;;16.67;15.33;;;;;28.14;33.37;102423.69;5078804;28;45348;-68
2023/05/25 10:19:44;;;;;;;;;13.67;12.33;;;;;29.46;32.23;102433.06;5078646;28;45361;-67
2023/05/25 10:22:42;;;;;;;;;15.00;14.00;;;;;30.83;32.17;102427.69;5016314;28;45451;-68
2023/05/25 10:25:24;;;;;;;;;17.67;16.00;;;;;32.09;29.38;102429.69;4937473;28;46207;-68
2023/05/25 10:27:59;;;;;;;;;15.00;14.00;;;;;32.46;29.34;102434.63;4937570;28;45562;-68
2023/05/25 10:30:26;;;;;;;;;17.67;17.33;;;;;32.43;27.83;102437.63;4937683;28;45501;-68
2023/05/25 10:32:53;;;;;;;;;17.67;16.33;;;;;32.43;27.20;102436.75;4937924;28;45611;-68
2023/05/25 10:35:20;;;;;;;;;25.00;19.67;;;;;31.82;28.37;102429.41;4937362;28;45527;-68
2023/05/25 10:37:46;;;;;;;;;16.33;15.67;;;;;31.61;29.37;102438.44;4937678;28;45562;-68
2023/05/25 10:40:12;;;;;;;;;22.67;20.00;;;;;31.39;27.34;102429.34;4937669;28;45388;-65
2023/05/25 10:42:40;;;;;;;;;18.33;17.00;;;;;30.89;27.39;102416.28;4937549;28;45266;-65
2023/05/25 10:45:07;;;;;;;;;22.33;21.67;;;;;30.43;28.51;102436.38;4936683;28;46435;-66
2023/05/25 10:47:40;;;;;;;;;23.00;23.00;;;;;30.61;28.66;102425.00;4937346;28;45400;-65
2023/05/25 10:50:17;;;;;;;;;20.33;19.33;;;;;30.70;27.09;102422.41;4937331;28;45465;-65
2023/05/25 10:52:42;;;;;;;;;26.00;24.67;;;;;30.87;27.62;102426.41;4937773;28;45419;-66
2023/05/25 10:55:08;;;;;;;;;26.67;22.67;;;;;30.95;27.75;102428.53;4937275;28;45372;-66
2023/05/25 10:57:33;;;;;;;;;26.33;25.33;;;;;30.59;27.67;102413.41;4937332;28;45412;-66
2023/05/25 11:00:07;;;;;;;;;22.67;22.67;;;;;30.45;27.88;102415.38;4971785;28;45488;-68
2023/05/25 11:02:54;;;;;;;;;25.33;22.33;;;;;29.82;28.32;102426.66;5043983;28;45456;-66
2023/05/25 11:05:25;;;;;;;;;19.33;19.33;;;;;29.25;28.14;102422.00;5077570;28;47497;-66
2023/05/25 11:07:58;;;;;;;;;22.67;20.67;;;;;28.55;28.66;102418.97;5077970;28;45770;-68
2023/05/25 11:10:48;;;;;;;;;18.00;18.00;;;;;27.95;29.85;102417.78;5078168;28;45361;-66